sensor_id;sensor_type;location;lat;lon;timestamp;temperature;humidity
30999;DHT22;20549;50.042;8.968;2023-07-20T00:01:37;22.80;51.60
30999;DHT22;20549;50.042;8.968;2023-07-20T00:04:04;22.80;51.70
30999;DHT22;20549;50.042;8.968;2023-07-20T00:06:31;22.80;51.80
30999;DHT22;20549;50.042;8.968;2023-07-20T00:08:57;22.70;52.40
30999;DHT22;20549;50.042;8.968;2023-07-20T00:11:25;22.70;51.90
30999;DHT22;20549;50.042;8.968;2023-07-20T00:13:50;22.70;52.00
30999;DHT22;20549;50.042;8.968;2023-07-20T00:16:17;22.70;52.10
30999;DHT22;20549;50.042;8.968;2023-07-20T00:18:44;22.60;52.20
30999;DHT22;20549;50.042;8.968;2023-07-20T00:21:10;22.60;52.30
30999;DHT22;20549;50.042;8.968;2023-07-20T00:23:37;22.60;52.40
30999;DHT22;20549;50.042;8.968;2023-07-20T00:26:03;22.60;52.50
30999;DHT22;20549;50.042;8.968;2023-07-20T00:28:30;22.60;52.60
30999;DHT22;20549;50.042;8.968;2023-07-20T00:30:58;22.60;52.60
30999;DHT22;20549;50.042;8.968;2023-07-20T00:33:23;22.60;52.70
30999;DHT22;20549;50.042;8.968;2023-07-20T00:35:50;22.50;52.70
30999;DHT22;20549;50.042;8.968;2023-07-20T00:38:16;22.40;52.70
30999;DHT22;20549;50.042;8.968;2023-07-20T00:40:43;22.50;52.80
30999;DHT22;20549;50.042;8.968;2023-07-20T00:43:09;22.40;52.90
30999;DHT22;20549;50.042;8.968;2023-07-20T00:45:36;22.40;53.00
30999;DHT22;20549;50.042;8.968;2023-07-20T00:48:03;22.30;53.00
30999;DHT22;20549;50.042;8.968;2023-07-20T00:50:29;22.20;53.00
30999;DHT22;20549;50.042;8.968;2023-07-20T00:52:56;22.20;53.10
30999;DHT22;20549;50.042;8.968;2023-07-20T00:55:23;22.20;53.20
30999;DHT22;20549;50.042;8.968;2023-07-20T00:57:49;22.10;53.20
30999;DHT22;20549;50.042;8.968;2023-07-20T01:00:16;22.00;53.30
30999;DHT22;20549;50.042;8.968;2023-07-20T01:02:42;22.00;53.40
30999;DHT22;20549;50.042;8.968;2023-07-20T01:05:09;22.00;53.50
30999;DHT22;20549;50.042;8.968;2023-07-20T01:07:40;21.90;53.60
30999;DHT22;20549;50.042;8.968;2023-07-20T01:12:43;21.90;53.70
30999;DHT22;20549;50.042;8.968;2023-07-20T01:15:09;21.80;53.60
30999;DHT22;20549;50.042;8.968;2023-07-20T01:17:36;21.80;53.70
30999;DHT22;20549;50.042;8.968;2023-07-20T01:20:03;21.80;53.70
30999;DHT22;20549;50.042;8.968;2023-07-20T01:22:54;21.80;53.70
30999;DHT22;20549;50.042;8.968;2023-07-20T01:28:35;21.70;53.90
30999;DHT22;20549;50.042;8.968;2023-07-20T01:30:59;21.60;53.90
30999;DHT22;20549;50.042;8.968;2023-07-20T01:33:22;21.50;53.90
30999;DHT22;20549;50.042;8.968;2023-07-20T01:35:51;21.40;54.10
30999;DHT22;20549;50.042;8.968;2023-07-20T01:38:15;21.30;54.30
30999;DHT22;20549;50.042;8.968;2023-07-20T01:40:42;21.30;54.50
30999;DHT22;20549;50.042;8.968;2023-07-20T01:43:09;21.20;54.60
30999;DHT22;20549;50.042;8.968;2023-07-20T01:45:35;21.20;55.00
30999;DHT22;20549;50.042;8.968;2023-07-20T01:48:02;21.10;55.00
30999;DHT22;20549;50.042;8.968;2023-07-20T01:50:28;21.10;55.20
30999;DHT22;20549;50.042;8.968;2023-07-20T01:52:55;21.10;55.30
30999;DHT22;20549;50.042;8.968;2023-07-20T01:55:21;21.10;55.30
30999;DHT22;20549;50.042;8.968;2023-07-20T01:57:48;21.10;55.40
30999;DHT22;20549;50.042;8.968;2023-07-20T02:00:15;21.10;55.40
30999;DHT22;20549;50.042;8.968;2023-07-20T02:02:41;21.10;55.40
30999;DHT22;20549;50.042;8.968;2023-07-20T02:05:08;21.10;55.50
30999;DHT22;20549;50.042;8.968;2023-07-20T02:07:34;21.10;55.60
30999;DHT22;20549;50.042;8.968;2023-07-20T02:10:01;21.10;56.40
30999;DHT22;20549;50.042;8.968;2023-07-20T02:12:28;21.00;55.80
30999;DHT22;20549;50.042;8.968;2023-07-20T02:14:54;21.00;55.90
30999;DHT22;20549;50.042;8.968;2023-07-20T02:17:21;21.00;55.80
30999;DHT22;20549;50.042;8.968;2023-07-20T02:19:50;21.00;55.90
30999;DHT22;20549;50.042;8.968;2023-07-20T02:22:14;21.00;56.00
30999;DHT22;20549;50.042;8.968;2023-07-20T02:24:41;21.00;55.90
30999;DHT22;20549;50.042;8.968;2023-07-20T02:27:07;21.00;56.00
30999;DHT22;20549;50.042;8.968;2023-07-20T02:29:34;20.90;56.00
30999;DHT22;20549;50.042;8.968;2023-07-20T02:32:00;20.90;56.10
30999;DHT22;20549;50.042;8.968;2023-07-20T02:34:27;20.80;56.20
30999;DHT22;20549;50.042;8.968;2023-07-20T02:36:54;20.70;56.20
30999;DHT22;20549;50.042;8.968;2023-07-20T02:39:20;20.70;56.40
30999;DHT22;20549;50.042;8.968;2023-07-20T02:41:47;20.60;56.50
30999;DHT22;20549;50.042;8.968;2023-07-20T02:44:13;20.60;56.60
30999;DHT22;20549;50.042;8.968;2023-07-20T02:46:40;20.50;56.60
30999;DHT22;20549;50.042;8.968;2023-07-20T02:49:06;20.40;56.80
30999;DHT22;20549;50.042;8.968;2023-07-20T02:51:33;20.40;56.90
30999;DHT22;20549;50.042;8.968;2023-07-20T02:54:00;20.30;57.10
30999;DHT22;20549;50.042;8.968;2023-07-20T02:56:26;20.30;57.20
30999;DHT22;20549;50.042;8.968;2023-07-20T02:58:53;20.20;57.30
30999;DHT22;20549;50.042;8.968;2023-07-20T03:01:19;20.10;57.40
30999;DHT22;20549;50.042;8.968;2023-07-20T03:03:46;20.10;57.60
30999;DHT22;20549;50.042;8.968;2023-07-20T03:06:16;20.00;57.70
30999;DHT22;20549;50.042;8.968;2023-07-20T03:08:43;19.90;57.70
30999;DHT22;20549;50.042;8.968;2023-07-20T03:11:09;19.80;57.70
30999;DHT22;20549;50.042;8.968;2023-07-20T03:13:35;19.70;57.80
30999;DHT22;20549;50.042;8.968;2023-07-20T03:16:02;19.70;58.00
30999;DHT22;20549;50.042;8.968;2023-07-20T03:18:29;19.60;58.20
30999;DHT22;20549;50.042;8.968;2023-07-20T03:20:55;19.60;58.30
30999;DHT22;20549;50.042;8.968;2023-07-20T03:23:22;19.50;58.30
30999;DHT22;20549;50.042;8.968;2023-07-20T03:25:48;19.40;58.40
30999;DHT22;20549;50.042;8.968;2023-07-20T03:28:15;19.30;58.50
30999;DHT22;20549;50.042;8.968;2023-07-20T03:30:41;19.30;58.70
30999;DHT22;20549;50.042;8.968;2023-07-20T03:33:08;19.20;58.80
30999;DHT22;20549;50.042;8.968;2023-07-20T03:35:35;19.10;59.00
30999;DHT22;20549;50.042;8.968;2023-07-20T03:38:01;19.00;59.20
30999;DHT22;20549;50.042;8.968;2023-07-20T03:40:28;19.00;59.40
30999;DHT22;20549;50.042;8.968;2023-07-20T03:42:54;18.90;59.60
30999;DHT22;20549;50.042;8.968;2023-07-20T03:45:21;18.80;59.70
30999;DHT22;20549;50.042;8.968;2023-07-20T03:47:48;18.80;59.90
30999;DHT22;20549;50.042;8.968;2023-07-20T03:50:14;18.70;60.00
30999;DHT22;20549;50.042;8.968;2023-07-20T03:52:41;18.60;61.00
30999;DHT22;20549;50.042;8.968;2023-07-20T03:55:07;18.60;60.30
30999;DHT22;20549;50.042;8.968;2023-07-20T03:57:34;18.60;60.60
30999;DHT22;20549;50.042;8.968;2023-07-20T04:00:01;18.60;60.80
30999;DHT22;20549;50.042;8.968;2023-07-20T04:02:27;18.50;61.00
30999;DHT22;20549;50.042;8.968;2023-07-20T04:04:54;18.50;61.20
30999;DHT22;20549;50.042;8.968;2023-07-20T04:07:20;18.50;61.90
30999;DHT22;20549;50.042;8.968;2023-07-20T04:09:47;18.50;61.40
30999;DHT22;20549;50.042;8.968;2023-07-20T04:12:13;18.50;61.50
30999;DHT22;20549;50.042;8.968;2023-07-20T04:14:40;18.60;61.70
30999;DHT22;20549;50.042;8.968;2023-07-20T04:17:07;18.60;61.70
30999;DHT22;20549;50.042;8.968;2023-07-20T04:19:33;18.60;61.80
30999;DHT22;20549;50.042;8.968;2023-07-20T04:22:00;18.60;61.90
30999;DHT22;20549;50.042;8.968;2023-07-20T04:24:26;18.60;62.00
30999;DHT22;20549;50.042;8.968;2023-07-20T04:26:53;18.70;62.10
30999;DHT22;20549;50.042;8.968;2023-07-20T04:29:20;18.70;62.20
30999;DHT22;20549;50.042;8.968;2023-07-20T04:31:46;18.80;62.40
30999;DHT22;20549;50.042;8.968;2023-07-20T04:34:13;18.80;62.50
30999;DHT22;20549;50.042;8.968;2023-07-20T04:36:39;18.90;62.60
30999;DHT22;20549;50.042;8.968;2023-07-20T04:39:06;19.00;62.70
30999;DHT22;20549;50.042;8.968;2023-07-20T04:41:33;19.10;62.80
30999;DHT22;20549;50.042;8.968;2023-07-20T04:43:59;19.10;62.70
30999;DHT22;20549;50.042;8.968;2023-07-20T04:46:26;19.30;62.80
30999;DHT22;20549;50.042;8.968;2023-07-20T04:48:52;19.40;62.70
30999;DHT22;20549;50.042;8.968;2023-07-20T04:51:19;19.50;62.70
30999;DHT22;20549;50.042;8.968;2023-07-20T04:53:48;19.60;62.70
30999;DHT22;20549;50.042;8.968;2023-07-20T04:56:12;19.80;62.70
30999;DHT22;20549;50.042;8.968;2023-07-20T04:58:39;19.90;62.70
30999;DHT22;20549;50.042;8.968;2023-07-20T05:01:05;20.10;62.70
30999;DHT22;20549;50.042;8.968;2023-07-20T05:03:32;20.30;62.50
30999;DHT22;20549;50.042;8.968;2023-07-20T05:05:58;20.50;62.40
30999;DHT22;20549;50.042;8.968;2023-07-20T05:08:25;20.80;62.30
30999;DHT22;20549;50.042;8.968;2023-07-20T05:10:52;21.00;62.10
30999;DHT22;20549;50.042;8.968;2023-07-20T05:13:18;21.20;61.70
30999;DHT22;20549;50.042;8.968;2023-07-20T05:15:45;21.50;61.30
30999;DHT22;20549;50.042;8.968;2023-07-20T05:18:11;21.70;60.60
30999;DHT22;20549;50.042;8.968;2023-07-20T05:20:38;21.90;60.00
30999;DHT22;20549;50.042;8.968;2023-07-20T05:23:05;22.10;59.70
30999;DHT22;20549;50.042;8.968;2023-07-20T05:25:31;22.20;59.50
30999;DHT22;20549;50.042;8.968;2023-07-20T05:27:58;22.40;59.80
30999;DHT22;20549;50.042;8.968;2023-07-20T05:30:24;22.70;60.10
30999;DHT22;20549;50.042;8.968;2023-07-20T05:32:51;23.10;60.40
30999;DHT22;20549;50.042;8.968;2023-07-20T05:35:18;23.60;60.40
30999;DHT22;20549;50.042;8.968;2023-07-20T05:37:44;24.30;60.30
30999;DHT22;20549;50.042;8.968;2023-07-20T05:40:11;24.90;59.70
30999;DHT22;20549;50.042;8.968;2023-07-20T05:42:38;25.60;58.90
30999;DHT22;20549;50.042;8.968;2023-07-20T05:45:04;26.30;58.10
30999;DHT22;20549;50.042;8.968;2023-07-20T05:47:31;26.90;57.30
30999;DHT22;20549;50.042;8.968;2023-07-20T05:49:57;27.50;56.50
30999;DHT22;20549;50.042;8.968;2023-07-20T05:52:24;28.10;55.60
30999;DHT22;20549;50.042;8.968;2023-07-20T05:54:50;28.60;54.80
30999;DHT22;20549;50.042;8.968;2023-07-20T05:57:17;29.20;54.30
30999;DHT22;20549;50.042;8.968;2023-07-20T05:59:44;29.70;53.70
30999;DHT22;20549;50.042;8.968;2023-07-20T06:02:10;30.30;53.00
30999;DHT22;20549;50.042;8.968;2023-07-20T06:04:38;30.90;52.40
30999;DHT22;20549;50.042;8.968;2023-07-20T06:07:03;31.40;51.60
30999;DHT22;20549;50.042;8.968;2023-07-20T06:09:30;31.90;50.60
30999;DHT22;20549;50.042;8.968;2023-07-20T06:11:57;32.30;49.30
30999;DHT22;20549;50.042;8.968;2023-07-20T06:14:23;32.60;48.10
30999;DHT22;20549;50.042;8.968;2023-07-20T06:16:50;32.70;47.10
30999;DHT22;20549;50.042;8.968;2023-07-20T06:19:16;32.60;46.30
30999;DHT22;20549;50.042;8.968;2023-07-20T06:21:43;32.50;45.90
30999;DHT22;20549;50.042;8.968;2023-07-20T06:24:09;32.20;45.60
30999;DHT22;20549;50.042;8.968;2023-07-20T06:26:36;32.00;45.60
30999;DHT22;20549;50.042;8.968;2023-07-20T06:29:03;31.80;46.00
30999;DHT22;20549;50.042;8.968;2023-07-20T06:31:29;31.90;46.60
30999;DHT22;20549;50.042;8.968;2023-07-20T06:33:56;32.00;47.10
30999;DHT22;20549;50.042;8.968;2023-07-20T06:36:22;32.30;47.00
30999;DHT22;20549;50.042;8.968;2023-07-20T06:38:49;32.70;46.70
30999;DHT22;20549;50.042;8.968;2023-07-20T06:41:16;33.00;46.00
30999;DHT22;20549;50.042;8.968;2023-07-20T06:43:42;33.30;45.40
30999;DHT22;20549;50.042;8.968;2023-07-20T06:46:09;33.50;44.70
30999;DHT22;20549;50.042;8.968;2023-07-20T06:48:35;33.60;44.00
30999;DHT22;20549;50.042;8.968;2023-07-20T06:51:02;33.50;43.50
30999;DHT22;20549;50.042;8.968;2023-07-20T06:53:29;33.50;43.20
30999;DHT22;20549;50.042;8.968;2023-07-20T06:55:55;33.30;43.10
30999;DHT22;20549;50.042;8.968;2023-07-20T06:58:24;33.10;43.00
30999;DHT22;20549;50.042;8.968;2023-07-20T07:00:51;32.90;43.00
30999;DHT22;20549;50.042;8.968;2023-07-20T07:03:18;32.70;43.10
30999;DHT22;20549;50.042;8.968;2023-07-20T07:05:44;32.60;43.10
30999;DHT22;20549;50.042;8.968;2023-07-20T07:08:14;32.40;43.10
30999;DHT22;20549;50.042;8.968;2023-07-20T07:10:40;32.20;43.20
30999;DHT22;20549;50.042;8.968;2023-07-20T07:13:07;32.10;43.40
30999;DHT22;20549;50.042;8.968;2023-07-20T07:15:33;32.10;43.80
30999;DHT22;20549;50.042;8.968;2023-07-20T07:18:00;32.10;44.00
30999;DHT22;20549;50.042;8.968;2023-07-20T07:20:27;32.10;43.80
30999;DHT22;20549;50.042;8.968;2023-07-20T07:22:53;32.20;43.70
30999;DHT22;20549;50.042;8.968;2023-07-20T07:25:20;32.30;44.10
30999;DHT22;20549;50.042;8.968;2023-07-20T07:27:46;32.30;43.30
30999;DHT22;20549;50.042;8.968;2023-07-20T07:30:13;32.40;43.40
30999;DHT22;20549;50.042;8.968;2023-07-20T07:32:40;32.50;43.50
30999;DHT22;20549;50.042;8.968;2023-07-20T07:35:06;32.60;43.20
30999;DHT22;20549;50.042;8.968;2023-07-20T07:37:33;32.70;42.90
30999;DHT22;20549;50.042;8.968;2023-07-20T07:39:59;32.70;42.70
30999;DHT22;20549;50.042;8.968;2023-07-20T07:42:26;32.70;42.60
30999;DHT22;20549;50.042;8.968;2023-07-20T07:44:52;32.80;42.60
30999;DHT22;20549;50.042;8.968;2023-07-20T07:47:19;32.80;42.40
30999;DHT22;20549;50.042;8.968;2023-07-20T07:49:46;32.80;42.30
30999;DHT22;20549;50.042;8.968;2023-07-20T07:52:12;32.80;42.10
30999;DHT22;20549;50.042;8.968;2023-07-20T07:54:39;32.80;42.20
30999;DHT22;20549;50.042;8.968;2023-07-20T07:57:05;32.80;42.10
30999;DHT22;20549;50.042;8.968;2023-07-20T07:59:32;32.90;42.20
30999;DHT22;20549;50.042;8.968;2023-07-20T08:01:59;32.90;42.20
30999;DHT22;20549;50.042;8.968;2023-07-20T08:04:25;33.00;42.10
30999;DHT22;20549;50.042;8.968;2023-07-20T08:06:52;33.10;42.00
30999;DHT22;20549;50.042;8.968;2023-07-20T08:09:18;33.30;42.10
30999;DHT22;20549;50.042;8.968;2023-07-20T08:11:45;33.50;42.30
30999;DHT22;20549;50.042;8.968;2023-07-20T08:14:12;33.80;42.20
30999;DHT22;20549;50.042;8.968;2023-07-20T08:16:38;34.10;42.00
30999;DHT22;20549;50.042;8.968;2023-07-20T08:19:05;34.50;41.90
30999;DHT22;20549;50.042;8.968;2023-07-20T08:21:31;35.00;41.60
30999;DHT22;20549;50.042;8.968;2023-07-20T08:23:58;35.40;41.00
30999;DHT22;20549;50.042;8.968;2023-07-20T08:26:24;35.90;40.90
30999;DHT22;20549;50.042;8.968;2023-07-20T08:28:51;36.40;40.40
30999;DHT22;20549;50.042;8.968;2023-07-20T08:31:18;36.80;39.80
30999;DHT22;20549;50.042;8.968;2023-07-20T08:33:44;37.20;39.30
30999;DHT22;20549;50.042;8.968;2023-07-20T08:36:11;37.60;38.60
30999;DHT22;20549;50.042;8.968;2023-07-20T08:38:37;37.90;38.40
30999;DHT22;20549;50.042;8.968;2023-07-20T08:41:04;38.20;37.50
30999;DHT22;20549;50.042;8.968;2023-07-20T08:43:31;38.40;36.90
30999;DHT22;20549;50.042;8.968;2023-07-20T08:45:57;38.60;37.10
30999;DHT22;20549;50.042;8.968;2023-07-20T08:48:27;38.90;37.20
30999;DHT22;20549;50.042;8.968;2023-07-20T08:50:53;39.30;36.90
30999;DHT22;20549;50.042;8.968;2023-07-20T08:53:20;39.80;36.70
30999;DHT22;20549;50.042;8.968;2023-07-20T08:55:47;40.20;36.10
30999;DHT22;20549;50.042;8.968;2023-07-20T08:58:13;40.60;35.10
30999;DHT22;20549;50.042;8.968;2023-07-20T09:00:40;40.80;34.30
30999;DHT22;20549;50.042;8.968;2023-07-20T09:03:06;41.00;33.80
30999;DHT22;20549;50.042;8.968;2023-07-20T09:05:33;41.10;33.50
30999;DHT22;20549;50.042;8.968;2023-07-20T09:07:59;41.30;33.40
30999;DHT22;20549;50.042;8.968;2023-07-20T09:10:26;41.40;32.80
30999;DHT22;20549;50.042;8.968;2023-07-20T09:12:53;41.50;32.20
30999;DHT22;20549;50.042;8.968;2023-07-20T09:15:19;41.50;31.80
30999;DHT22;20549;50.042;8.968;2023-07-20T09:17:49;41.40;31.60
30999;DHT22;20549;50.042;8.968;2023-07-20T09:20:18;41.50;31.80
30999;DHT22;20549;50.042;8.968;2023-07-20T09:22:45;41.60;31.90
30999;DHT22;20549;50.042;8.968;2023-07-20T09:25:14;42.00;31.80
30999;DHT22;20549;50.042;8.968;2023-07-20T09:27:38;42.40;32.30
30999;DHT22;20549;50.042;8.968;2023-07-20T09:30:05;42.80;31.00
30999;DHT22;20549;50.042;8.968;2023-07-20T09:32:31;43.20;30.50
30999;DHT22;20549;50.042;8.968;2023-07-20T09:34:57;43.60;30.20
30999;DHT22;20549;50.042;8.968;2023-07-20T09:37:24;43.90;30.00
30999;DHT22;20549;50.042;8.968;2023-07-20T09:39:53;44.10;29.50
30999;DHT22;20549;50.042;8.968;2023-07-20T09:42:21;44.30;29.30
30999;DHT22;20549;50.042;8.968;2023-07-20T09:44:47;44.40;29.00
30999;DHT22;20549;50.042;8.968;2023-07-20T09:47:13;44.30;28.30
30999;DHT22;20549;50.042;8.968;2023-07-20T09:49:40;44.20;28.30
30999;DHT22;20549;50.042;8.968;2023-07-20T09:52:09;44.00;28.10
30999;DHT22;20549;50.042;8.968;2023-07-20T09:54:33;43.80;28.10
30999;DHT22;20549;50.042;8.968;2023-07-20T09:56:59;43.50;27.80
30999;DHT22;20549;50.042;8.968;2023-07-20T09:59:26;43.10;27.50
30999;DHT22;20549;50.042;8.968;2023-07-20T10:01:53;42.50;27.50
30999;DHT22;20549;50.042;8.968;2023-07-20T10:04:19;41.70;27.60
30999;DHT22;20549;50.042;8.968;2023-07-20T10:06:46;41.00;27.70
30999;DHT22;20549;50.042;8.968;2023-07-20T10:09:12;40.20;27.90
30999;DHT22;20549;50.042;8.968;2023-07-20T10:11:40;39.40;28.10
30999;DHT22;20549;50.042;8.968;2023-07-20T10:14:06;38.70;28.50
30999;DHT22;20549;50.042;8.968;2023-07-20T10:16:34;38.00;28.90
30999;DHT22;20549;50.042;8.968;2023-07-20T10:19:05;37.40;29.30
30999;DHT22;20549;50.042;8.968;2023-07-20T10:21:32;36.90;30.00
30999;DHT22;20549;50.042;8.968;2023-07-20T10:23:58;36.50;29.90
30999;DHT22;20549;50.042;8.968;2023-07-20T10:26:25;36.20;30.00
30999;DHT22;20549;50.042;8.968;2023-07-20T10:28:51;35.80;30.20
30999;DHT22;20549;50.042;8.968;2023-07-20T10:31:18;35.50;30.50
30999;DHT22;20549;50.042;8.968;2023-07-20T10:33:44;35.10;30.60
30999;DHT22;20549;50.042;8.968;2023-07-20T10:36:11;34.80;30.80
30999;DHT22;20549;50.042;8.968;2023-07-20T10:41:19;34.20;31.50
30999;DHT22;20549;50.042;8.968;2023-07-20T10:43:45;33.90;31.80
30999;DHT22;20549;50.042;8.968;2023-07-20T10:46:12;33.70;32.10
30999;DHT22;20549;50.042;8.968;2023-07-20T10:49:04;33.50;32.40
30999;DHT22;20549;50.042;8.968;2023-07-20T10:51:27;33.30;32.60
30999;DHT22;20549;50.042;8.968;2023-07-20T10:53:55;33.10;32.60
30999;DHT22;20549;50.042;8.968;2023-07-20T10:56:20;32.90;32.80
30999;DHT22;20549;50.042;8.968;2023-07-20T10:58:46;32.70;33.10
30999;DHT22;20549;50.042;8.968;2023-07-20T11:01:13;32.50;33.40
30999;DHT22;20549;50.042;8.968;2023-07-20T11:03:40;32.40;33.70
30999;DHT22;20549;50.042;8.968;2023-07-20T11:08:57;32.10;34.00
30999;DHT22;20549;50.042;8.968;2023-07-20T11:11:33;31.90;34.20
30999;DHT22;20549;50.042;8.968;2023-07-20T11:13:59;31.70;34.40
30999;DHT22;20549;50.042;8.968;2023-07-20T11:16:37;31.60;34.60
30999;DHT22;20549;50.042;8.968;2023-07-20T11:19:04;31.60;34.90
30999;DHT22;20549;50.042;8.968;2023-07-20T11:21:36;31.60;34.90
30999;DHT22;20549;50.042;8.968;2023-07-20T11:24:05;31.50;34.90
30999;DHT22;20549;50.042;8.968;2023-07-20T11:26:41;31.50;34.90
30999;DHT22;20549;50.042;8.968;2023-07-20T11:28:58;31.50;35.00
30999;DHT22;20549;50.042;8.968;2023-07-20T11:31:25;31.40;35.60
30999;DHT22;20549;50.042;8.968;2023-07-20T11:33:52;31.40;35.00
30999;DHT22;20549;50.042;8.968;2023-07-20T11:36:18;31.30;35.10
30999;DHT22;20549;50.042;8.968;2023-07-20T11:38:45;31.30;35.10
30999;DHT22;20549;50.042;8.968;2023-07-20T11:41:12;31.30;35.10
30999;DHT22;20549;50.042;8.968;2023-07-20T11:43:38;31.30;35.20
30999;DHT22;20549;50.042;8.968;2023-07-20T11:46:05;31.20;35.30
30999;DHT22;20549;50.042;8.968;2023-07-20T11:48:31;31.20;35.30
30999;DHT22;20549;50.042;8.968;2023-07-20T11:50:58;31.10;35.30
30999;DHT22;20549;50.042;8.968;2023-07-20T11:53:24;31.00;35.40
30999;DHT22;20549;50.042;8.968;2023-07-20T11:55:51;30.90;35.50
30999;DHT22;20549;50.042;8.968;2023-07-20T11:58:17;30.80;35.70
30999;DHT22;20549;50.042;8.968;2023-07-20T12:00:44;30.80;35.80
30999;DHT22;20549;50.042;8.968;2023-07-20T12:03:11;30.70;36.00
30999;DHT22;20549;50.042;8.968;2023-07-20T12:05:40;30.70;36.00
30999;DHT22;20549;50.042;8.968;2023-07-20T12:08:07;30.70;36.30
30999;DHT22;20549;50.042;8.968;2023-07-20T12:10:33;30.70;36.50
30999;DHT22;20549;50.042;8.968;2023-07-20T12:13:03;30.70;36.50
30999;DHT22;20549;50.042;8.968;2023-07-20T12:15:32;30.80;36.80
30999;DHT22;20549;50.042;8.968;2023-07-20T12:17:59;30.80;36.50
30999;DHT22;20549;50.042;8.968;2023-07-20T12:20:35;30.90;36.50
30999;DHT22;20549;50.042;8.968;2023-07-20T12:23:09;30.90;36.40
30999;DHT22;20549;50.042;8.968;2023-07-20T12:25:38;31.00;36.40
30999;DHT22;20549;50.042;8.968;2023-07-20T12:28:11;31.00;36.20
30999;DHT22;20549;50.042;8.968;2023-07-20T12:30:37;31.00;36.10
30999;DHT22;20549;50.042;8.968;2023-07-20T12:33:03;31.00;36.00
30999;DHT22;20549;50.042;8.968;2023-07-20T12:35:30;30.90;35.90
30999;DHT22;20549;50.042;8.968;2023-07-20T12:37:57;30.80;36.10
30999;DHT22;20549;50.042;8.968;2023-07-20T12:40:23;30.70;36.00
30999;DHT22;20549;50.042;8.968;2023-07-20T12:42:50;30.70;36.40
30999;DHT22;20549;50.042;8.968;2023-07-20T12:45:16;30.60;36.40
30999;DHT22;20549;50.042;8.968;2023-07-20T12:47:43;30.70;36.40
30999;DHT22;20549;50.042;8.968;2023-07-20T12:50:10;30.70;36.40
30999;DHT22;20549;50.042;8.968;2023-07-20T12:52:36;30.70;36.30
30999;DHT22;20549;50.042;8.968;2023-07-20T12:55:03;30.80;36.40
30999;DHT22;20549;50.042;8.968;2023-07-20T12:57:29;30.80;36.40
30999;DHT22;20549;50.042;8.968;2023-07-20T12:59:56;30.90;36.30
30999;DHT22;20549;50.042;8.968;2023-07-20T13:02:22;31.00;36.20
30999;DHT22;20549;50.042;8.968;2023-07-20T13:04:49;31.00;36.20
30999;DHT22;20549;50.042;8.968;2023-07-20T13:07:16;31.00;36.10
30999;DHT22;20549;50.042;8.968;2023-07-20T13:09:42;31.00;36.20
30999;DHT22;20549;50.042;8.968;2023-07-20T13:12:09;31.10;36.20
30999;DHT22;20549;50.042;8.968;2023-07-20T13:14:35;31.00;36.00
30999;DHT22;20549;50.042;8.968;2023-07-20T13:17:02;31.00;36.00
30999;DHT22;20549;50.042;8.968;2023-07-20T13:19:28;31.00;35.80
30999;DHT22;20549;50.042;8.968;2023-07-20T13:21:55;31.00;35.70
30999;DHT22;20549;50.042;8.968;2023-07-20T13:24:22;31.00;35.60
30999;DHT22;20549;50.042;8.968;2023-07-20T13:26:48;31.00;35.50
30999;DHT22;20549;50.042;8.968;2023-07-20T13:29:15;30.90;35.60
30999;DHT22;20549;50.042;8.968;2023-07-20T13:31:41;30.90;35.70
30999;DHT22;20549;50.042;8.968;2023-07-20T13:34:08;30.90;35.90
30999;DHT22;20549;50.042;8.968;2023-07-20T13:36:35;30.80;35.80
30999;DHT22;20549;50.042;8.968;2023-07-20T13:39:01;30.90;36.10
30999;DHT22;20549;50.042;8.968;2023-07-20T13:41:28;30.90;36.20
30999;DHT22;20549;50.042;8.968;2023-07-20T13:43:54;30.90;36.30
30999;DHT22;20549;50.042;8.968;2023-07-20T13:46:21;30.90;36.30
30999;DHT22;20549;50.042;8.968;2023-07-20T13:48:48;30.90;36.10
30999;DHT22;20549;50.042;8.968;2023-07-20T13:51:14;30.90;35.80
30999;DHT22;20549;50.042;8.968;2023-07-20T13:53:41;31.00;35.80
30999;DHT22;20549;50.042;8.968;2023-07-20T13:56:07;31.00;35.80
30999;DHT22;20549;50.042;8.968;2023-07-20T13:58:34;31.00;35.50
30999;DHT22;20549;50.042;8.968;2023-07-20T14:01:01;30.90;35.50
30999;DHT22;20549;50.042;8.968;2023-07-20T14:03:27;31.00;35.40
30999;DHT22;20549;50.042;8.968;2023-07-20T14:05:54;31.00;35.30
30999;DHT22;20549;50.042;8.968;2023-07-20T14:08:20;31.10;35.10
30999;DHT22;20549;50.042;8.968;2023-07-20T14:10:47;31.20;34.90
30999;DHT22;20549;50.042;8.968;2023-07-20T14:13:13;31.10;34.50
30999;DHT22;20549;50.042;8.968;2023-07-20T14:15:40;31.00;34.20
30999;DHT22;20549;50.042;8.968;2023-07-20T14:18:07;31.00;34.20
30999;DHT22;20549;50.042;8.968;2023-07-20T14:20:33;30.90;34.00
30999;DHT22;20549;50.042;8.968;2023-07-20T14:23:00;30.90;33.90
30999;DHT22;20549;50.042;8.968;2023-07-20T14:25:26;30.80;33.90
30999;DHT22;20549;50.042;8.968;2023-07-20T14:27:53;30.70;34.00
30999;DHT22;20549;50.042;8.968;2023-07-20T14:30:20;30.70;34.00
30999;DHT22;20549;50.042;8.968;2023-07-20T14:32:46;30.60;34.00
30999;DHT22;20549;50.042;8.968;2023-07-20T14:35:13;30.60;33.90
30999;DHT22;20549;50.042;8.968;2023-07-20T14:37:39;30.50;33.80
30999;DHT22;20549;50.042;8.968;2023-07-20T14:40:06;30.40;33.90
30999;DHT22;20549;50.042;8.968;2023-07-20T14:42:33;30.30;33.80
30999;DHT22;20549;50.042;8.968;2023-07-20T14:44:59;30.30;33.90
30999;DHT22;20549;50.042;8.968;2023-07-20T14:47:26;30.10;33.90
30999;DHT22;20549;50.042;8.968;2023-07-20T14:49:52;30.00;33.90
30999;DHT22;20549;50.042;8.968;2023-07-20T14:52:19;29.90;33.90
30999;DHT22;20549;50.042;8.968;2023-07-20T14:54:46;29.80;34.00
30999;DHT22;20549;50.042;8.968;2023-07-20T14:57:12;29.70;34.00
30999;DHT22;20549;50.042;8.968;2023-07-20T14:59:42;29.70;34.20
30999;DHT22;20549;50.042;8.968;2023-07-20T15:02:08;29.60;34.30
30999;DHT22;20549;50.042;8.968;2023-07-20T15:04:35;29.60;34.60
30999;DHT22;20549;50.042;8.968;2023-07-20T15:07:01;29.60;34.70
30999;DHT22;20549;50.042;8.968;2023-07-20T15:09:28;29.60;34.50
30999;DHT22;20549;50.042;8.968;2023-07-20T15:11:55;29.60;34.80
30999;DHT22;20549;50.042;8.968;2023-07-20T15:14:21;29.60;34.70
30999;DHT22;20549;50.042;8.968;2023-07-20T15:16:48;29.60;34.60
30999;DHT22;20549;50.042;8.968;2023-07-20T15:19:14;29.60;34.60
30999;DHT22;20549;50.042;8.968;2023-07-20T15:21:41;29.60;34.60
30999;DHT22;20549;50.042;8.968;2023-07-20T15:24:08;29.60;34.60
30999;DHT22;20549;50.042;8.968;2023-07-20T15:26:34;29.60;34.70
30999;DHT22;20549;50.042;8.968;2023-07-20T15:29:01;29.50;34.70
30999;DHT22;20549;50.042;8.968;2023-07-20T15:31:27;29.50;34.60
30999;DHT22;20549;50.042;8.968;2023-07-20T15:33:54;29.40;34.60
30999;DHT22;20549;50.042;8.968;2023-07-20T15:36:21;29.30;34.70
30999;DHT22;20549;50.042;8.968;2023-07-20T15:38:47;29.30;34.80